Time,TemperatureF,DewpointF,PressureIn,WindDirection,WindDirectionDegrees,WindSpeedMPH,WindSpeedGustMPH,Humidity,HourlyPrecipIn,Conditions,Clouds,dailyrainin,SoftwareType,DateUTC
2013-03-06 00:00:00,21.2,-1.0,21.11,ESE,102,8.7,8.7,37,0.00,,---,0.00,VWS V14.01,2013-03-06 07:00:00,
2013-03-06 00:05:00,21.2,-1.0,21.11,SE,124,8.3,8.7,37,0.00,,---,0.00,VWS V14.01,2013-03-06 07:05:00,
2013-03-06 00:10:00,21.0,-1.2,21.11,SE,126,9.2,10.1,37,0.00,,---,0.00,VWS V14.01,2013-03-06 07:10:00,
2013-03-06 00:15:00,21.0,-1.2,21.11,ESE,123,8.3,8.3,37,0.00,,---,0.00,VWS V14.01,2013-03-06 07:15:00,
2013-03-06 00:21:00,20.8,-0.8,21.11,ESE,122,10.1,10.1,38,0.00,,---,0.00,VWS V14.01,2013-03-06 07:21:00,
2013-03-06 00:27:00,20.7,-0.9,21.11,ESE,114,11.0,11.0,38,0.00,,---,0.00,VWS V14.01,2013-03-06 07:27:00,
2013-03-06 00:32:00,20.7,-0.9,21.11,SE,126,10.5,10.5,38,0.00,,---,0.00,VWS V14.01,2013-03-06 07:32:00,
2013-03-06 00:38:00,20.8,0.9,21.11,SE,130,12.3,12.3,41,0.00,,---,0.00,VWS V14.01,2013-03-06 07:38:00,
2013-03-06 00:43:00,20.8,0.9,21.11,SE,136,8.7,10.5,41,0.00,,---,0.00,VWS V14.01,2013-03-06 07:43:00,
2013-03-06 00:49:00,21.0,2.0,21.11,SE,135,9.2,9.2,43,0.00,,---,0.00,VWS V14.01,2013-03-06 07:49:00,
2013-03-06 00:54:00,21.0,2.0,21.11,SE,128,8.1,9.2,43,0.00,,---,0.00,VWS V14.01,2013-03-06 07:54:00,
2013-03-06 01:00:00,21.0,2.0,21.11,SE,135,7.6,8.1,43,0.00,,---,0.00,VWS V14.01,2013-03-06 08:00:00,
2013-03-06 01:05:00,20.7,1.7,21.11,SE,134,8.3,8.3,43,0.00,,---,0.00,VWS V14.01,2013-03-06 08:05:00,
2013-03-06 01:11:00,20.5,1.5,21.11,SE,125,8.3,8.3,43,0.00,,---,0.00,VWS V14.01,2013-03-06 08:11:00,
2013-03-06 01:16:00,20.5,1.5,21.11,SE,125,10.1,12.8,43,0.00,,---,0.00,VWS V14.01,2013-03-06 08:16:00,
2013-03-06 01:21:00,20.5,2.0,21.11,SE,125,11.0,11.0,44,0.00,,---,0.00,VWS V14.01,2013-03-06 08:21:00,
2013-03-06 01:26:00,20.8,2.9,21.11,SE,126,11.0,11.0,45,0.00,,---,0.00,VWS V14.01,2013-03-06 08:26:00,
2013-03-06 01:31:00,20.8,2.9,21.11,SE,125,13.2,13.2,45,0.00,,---,0.00,VWS V14.01,2013-03-06 08:31:00,
2013-03-06 01:37:00,20.8,2.9,21.11,SE,131,11.0,11.0,45,0.00,,---,0.00,VWS V14.01,2013-03-06 08:37:00,
2013-03-06 01:43:00,20.8,2.9,21.11,SE,124,11.4,11.9,45,0.00,,---,0.00,VWS V14.01,2013-03-06 08:43:00,
2013-03-06 01:49:00,20.8,2.4,21.11,SE,124,9.6,10.5,44,0.00,,---,0.00,VWS V14.01,2013-03-06 08:49:00,
2013-03-06 01:54:00,20.7,2.2,21.11,SE,132,13.2,13.2,44,0.00,,---,0.00,VWS V14.01,2013-03-06 08:54:00,
2013-03-06 01:59:00,20.8,2.9,21.11,SE,131,13.2,13.2,45,0.00,,---,0.00,VWS V14.01,2013-03-06 08:59:00,
2013-03-06 02:04:00,21.0,3.0,21.11,SE,141,13.2,13.2,45,0.00,,---,0.00,VWS V14.01,2013-03-06 09:04:00,
2013-03-06 02:10:00,21.2,3.7,21.11,SE,140,15.0,15.4,46,0.00,,---,0.00,VWS V14.01,2013-03-06 09:10:00,
2013-03-06 02:16:00,21.2,3.7,21.11,SE,130,15.4,15.4,46,0.00,,---,0.00,VWS V14.01,2013-03-06 09:16:00,
2013-03-06 02:21:00,21.0,3.5,21.11,SE,127,12.8,15.9,46,0.00,,---,0.00,VWS V14.01,2013-03-06 09:21:00,
2013-03-06 02:27:00,20.8,3.3,21.11,SE,134,12.8,13.2,46,0.00,,---,0.00,VWS V14.01,2013-03-06 09:27:00,
2013-03-06 02:32:00,20.7,3.2,21.11,SE,134,15.4,15.4,46,0.00,,---,0.00,VWS V14.01,2013-03-06 09:32:00,
2013-03-06 02:38:00,20.5,3.0,21.11,SE,135,12.8,13.2,46,0.00,,---,0.00,VWS V14.01,2013-03-06 09:38:00,
2013-03-06 02:44:00,20.3,2.8,21.11,SE,129,12.3,12.8,46,0.00,,---,0.00,VWS V14.01,2013-03-06 09:44:00,
2013-03-06 02:49:00,20.3,2.8,21.11,SE,129,11.0,13.2,46,0.00,,---,0.00,VWS V14.01,2013-03-06 09:49:00,
2013-03-06 02:55:00,20.1,2.7,21.11,SE,135,11.9,13.2,46,0.00,,---,0.00,VWS V14.01,2013-03-06 09:55:00,
2013-03-06 03:00:00,20.1,2.7,21.11,ESE,122,12.8,14.5,46,0.00,,---,0.00,VWS V14.01,2013-03-06 10:00:00,
2013-03-06 03:06:00,20.1,2.7,21.11,SE,126,13.2,13.2,46,0.00,,---,0.00,VWS V14.01,2013-03-06 10:06:00,
2013-03-06 03:12:00,19.9,3.0,21.11,SE,126,15.4,15.4,47,0.00,,---,0.00,VWS V14.01,2013-03-06 10:12:00,
2013-03-06 03:17:00,19.9,3.0,21.11,ESE,123,17.4,17.4,47,0.00,,---,0.00,VWS V14.01,2013-03-06 10:17:00,
2013-03-06 03:22:00,20.1,3.1,21.11,SE,125,17.4,17.4,47,0.00,,---,0.00,VWS V14.01,2013-03-06 10:22:00,
2013-03-06 03:27:00,20.3,3.3,21.11,SE,128,15.4,15.4,47,0.00,,---,0.00,VWS V14.01,2013-03-06 10:27:00,
2013-03-06 03:33:00,20.3,3.3,21.11,SE,126,16.8,16.8,47,0.00,,---,0.00,VWS V14.01,2013-03-06 10:33:00,
2013-03-06 03:38:00,20.1,3.1,21.11,SE,130,16.8,16.8,47,0.00,,---,0.00,VWS V14.01,2013-03-06 10:38:00,
2013-03-06 03:44:00,20.1,3.1,21.11,ESE,123,17.9,17.9,47,0.00,,---,0.00,VWS V14.01,2013-03-06 10:44:00,
2013-03-06 03:49:00,20.1,3.1,21.11,SE,138,18.8,18.8,47,0.00,,---,0.00,VWS V14.01,2013-03-06 10:49:00,
2013-03-06 03:55:00,20.1,3.6,21.11,SE,135,15.0,17.4,48,0.00,,---,0.00,VWS V14.01,2013-03-06 10:55:00,
2013-03-06 04:00:00,20.1,3.6,21.11,SE,131,19.7,19.7,48,0.00,,---,0.00,VWS V14.01,2013-03-06 11:00:00,
2013-03-06 04:06:00,20.1,3.6,21.11,SE,140,17.4,17.4,48,0.00,,---,0.00,VWS V14.01,2013-03-06 11:06:00,
2013-03-06 04:12:00,20.1,3.6,21.11,SE,137,17.4,18.3,48,0.00,,---,0.00,VWS V14.01,2013-03-06 11:12:00,
2013-03-06 04:17:00,20.3,3.8,21.11,SE,139,18.3,18.3,48,0.00,,---,0.00,VWS V14.01,2013-03-06 11:17:00,
2013-03-06 04:23:00,20.3,3.8,21.11,SE,127,17.0,19.7,48,0.00,,---,0.00,VWS V14.01,2013-03-06 11:23:00,
2013-03-06 04:29:00,20.3,3.8,21.11,SE,138,16.3,16.3,48,0.00,,---,0.00,VWS V14.01,2013-03-06 11:29:00,
2013-03-06 04:34:00,20.3,3.8,21.11,SE,134,23.3,24.6,48,0.00,,---,0.00,VWS V14.01,2013-03-06 11:34:00,
2013-03-06 04:40:00,20.3,3.8,21.11,SE,137,21.0,21.0,48,0.00,,---,0.00,VWS V14.01,2013-03-06 11:40:00,
2013-03-06 04:45:00,20.3,3.8,21.11,SE,136,17.0,20.1,48,0.00,,---,0.00,VWS V14.01,2013-03-06 11:45:00,
2013-03-06 04:50:00,20.3,3.8,21.11,SE,140,18.3,18.3,48,0.00,,---,0.00,VWS V14.01,2013-03-06 11:50:00,
2013-03-06 04:55:00,20.1,3.6,21.11,SE,137,15.4,15.4,48,0.00,,---,0.00,VWS V14.01,2013-03-06 11:55:00,
2013-03-06 05:01:00,20.1,4.0,21.11,SE,132,15.4,17.9,49,0.00,,---,0.00,VWS V14.01,2013-03-06 12:01:00,
2013-03-06 05:06:00,20.1,4.0,21.11,SE,146,17.0,17.0,49,0.00,,---,0.00,VWS V14.01,2013-03-06 12:06:00,
2013-03-06 05:11:00,20.3,4.2,21.11,SE,134,15.0,19.7,49,0.00,,---,0.00,VWS V14.01,2013-03-06 12:11:00,
2013-03-06 05:16:00,20.3,4.2,21.11,SE,140,18.8,18.8,49,0.00,,---,0.00,VWS V14.01,2013-03-06 12:16:00,
2013-03-06 05:22:00,20.7,5.0,21.11,SSE,152,17.4,20.1,50,0.00,,---,0.00,VWS V14.01,2013-03-06 12:22:00,
2013-03-06 05:27:00,20.8,4.7,21.11,SE,145,19.2,23.3,49,0.00,,---,0.00,VWS V14.01,2013-03-06 12:27:00,
2013-03-06 05:33:00,21.0,4.9,21.11,SE,144,21.0,21.0,49,0.00,,---,0.00,VWS V14.01,2013-03-06 12:33:00,
2013-03-06 05:39:00,21.0,4.9,21.11,SSE,147,16.8,19.2,49,0.00,,---,0.00,VWS V14.01,2013-03-06 12:39:00,
2013-03-06 05:44:00,20.8,4.2,21.11,SSE,149,17.4,19.7,48,0.00,,---,0.00,VWS V14.01,2013-03-06 12:44:00,
2013-03-06 05:50:00,20.8,4.2,21.11,SE,140,19.7,19.7,48,0.00,,---,0.00,VWS V14.01,2013-03-06 12:50:00,
2013-03-06 05:55:00,20.5,4.4,21.11,SE,129,19.7,19.7,49,0.00,,---,0.00,VWS V14.01,2013-03-06 12:55:00,
2013-03-06 06:00:00,20.3,4.2,21.11,SE,137,18.3,18.3,49,0.00,,---,0.00,VWS V14.01,2013-03-06 13:00:00,
2013-03-06 06:05:00,20.3,4.2,21.11,SSE,155,17.4,17.9,49,0.00,,---,0.00,VWS V14.01,2013-03-06 13:05:00,
2013-03-06 06:11:00,20.3,4.2,21.11,SE,143,17.9,17.9,49,0.00,,---,0.00,VWS V14.01,2013-03-06 13:11:00,
2013-03-06 06:16:00,20.3,4.2,21.11,SE,141,14.5,15.9,49,0.00,,---,0.00,VWS V14.01,2013-03-06 13:16:00,
2013-03-06 06:21:00,20.1,4.0,21.11,SE,128,17.4,17.4,49,0.00,,---,0.00,VWS V14.01,2013-03-06 13:21:00,
2013-03-06 06:26:00,20.1,4.5,21.11,SE,140,15.0,16.3,50,0.00,,---,0.00,VWS V14.01,2013-03-06 13:26:00,
2013-03-06 06:32:00,20.3,4.6,21.11,SE,140,16.3,16.3,50,0.00,,---,0.00,VWS V14.01,2013-03-06 13:32:00,
2013-03-06 06:37:00,20.5,4.8,21.11,SE,137,17.4,17.4,50,0.00,,---,0.00,VWS V14.01,2013-03-06 13:37:00,
2013-03-06 06:43:00,20.5,4.8,21.11,SE,130,16.8,18.8,50,0.00,,---,0.00,VWS V14.01,2013-03-06 13:43:00,
2013-03-06 06:48:00,21.0,5.3,21.11,SE,143,19.7,21.9,50,0.00,,---,0.00,VWS V14.01,2013-03-06 13:48:00,
2013-03-06 06:54:00,21.4,5.2,21.11,SE,135,20.6,20.6,49,0.00,,---,0.00,VWS V14.01,2013-03-06 13:54:00,
2013-03-06 06:59:00,21.4,5.2,21.11,SE,125,17.9,18.8,49,0.00,,---,0.00,VWS V14.01,2013-03-06 13:59:00,
2013-03-06 07:04:00,21.9,5.7,21.11,SE,143,17.4,17.4,49,0.00,,---,0.00,VWS V14.01,2013-03-06 14:04:00,
2013-03-06 07:10:00,22.1,5.4,21.11,SE,132,16.3,16.3,48,0.00,,---,0.00,VWS V14.01,2013-03-06 14:10:00,
2013-03-06 07:15:00,22.5,5.8,21.11,SE,140,19.7,19.7,48,0.00,,---,0.00,VWS V14.01,2013-03-06 14:15:00,
2013-03-06 07:20:00,22.6,5.9,21.11,SSE,150,23.3,23.3,48,0.00,,---,0.00,VWS V14.01,2013-03-06 14:20:00,
2013-03-06 07:26:00,22.8,5.6,21.11,SE,138,27.5,27.5,47,0.00,,---,0.00,VWS V14.01,2013-03-06 14:26:00,
2013-03-06 07:32:00,23.4,5.7,21.11,SE,144,25.7,25.7,46,0.00,,---,0.00,VWS V14.01,2013-03-06 14:32:00,
2013-03-06 07:38:00,23.7,5.5,21.11,SE,135,24.2,24.2,45,0.00,,---,0.00,VWS V14.01,2013-03-06 14:38:00,
2013-03-06 07:43:00,24.1,5.8,21.11,SE,143,23.3,23.3,45,0.00,,---,0.00,VWS V14.01,2013-03-06 14:43:00,
2013-03-06 07:49:00,24.6,5.8,21.11,SE,131,19.7,20.6,44,0.00,,---,0.00,VWS V14.01,2013-03-06 14:49:00,
2013-03-06 07:54:00,24.8,6.0,21.11,SE,141,19.7,19.7,44,0.00,,---,0.00,VWS V14.01,2013-03-06 14:54:00,
2013-03-06 08:00:00,24.8,6.0,21.11,SE,139,22.8,22.8,44,0.00,,---,0.00,VWS V14.01,2013-03-06 15:00:00,
2013-03-06 08:05:00,25.7,6.3,21.11,SE,131,25.1,25.5,43,0.00,,---,0.00,VWS V14.01,2013-03-06 15:05:00,
2013-03-06 08:11:00,26.1,6.6,21.11,SE,143,25.1,26.6,43,0.00,,---,0.00,VWS V14.01,2013-03-06 15:11:00,
2013-03-06 08:17:00,26.4,7.0,21.11,SSE,155,23.7,23.7,43,0.00,,---,0.00,VWS V14.01,2013-03-06 15:17:00,
2013-03-06 08:22:00,26.6,7.1,21.11,SSE,147,23.7,25.5,43,0.00,,---,0.00,VWS V14.01,2013-03-06 15:22:00,
2013-03-06 08:28:00,27.1,7.1,21.11,SE,139,25.1,25.1,42,0.00,,---,0.00,VWS V14.01,2013-03-06 15:28:00,
2013-03-06 08:34:00,27.7,7.6,21.11,SE,141,23.7,26.6,42,0.00,,---,0.00,VWS V14.01,2013-03-06 15:34:00,
2013-03-06 08:39:00,27.9,7.8,21.11,SE,139,25.5,29.8,42,0.00,,---,0.00,VWS V14.01,2013-03-06 15:39:00,
2013-03-06 08:45:00,28.6,7.9,21.11,SE,145,25.1,25.1,41,0.00,,---,0.00,VWS V14.01,2013-03-06 15:45:00,
2013-03-06 08:51:00,29.1,8.4,21.11,SE,135,25.5,26.6,41,0.00,,---,0.00,VWS V14.01,2013-03-06 15:51:00,
2013-03-06 08:56:00,29.1,8.4,21.11,SE,128,28.9,28.9,41,0.00,,---,0.00,VWS V14.01,2013-03-06 15:56:00,
2013-03-06 09:02:00,30.4,9.0,21.11,SE,144,31.1,31.1,40,0.00,,---,0.00,VWS V14.01,2013-03-06 16:02:00,
2013-03-06 09:07:00,30.6,8.6,21.11,SE,143,24.2,29.3,39,0.00,,---,0.00,VWS V14.01,2013-03-06 16:07:00,
2013-03-06 09:13:00,31.1,9.1,21.11,SE,146,25.5,31.1,39,0.00,,---,0.00,VWS V14.01,2013-03-06 16:13:00,
2013-03-06 09:19:00,32.0,9.3,21.11,SE,146,28.4,28.4,38,0.00,,---,0.00,VWS V14.01,2013-03-06 16:19:00,
2013-03-06 09:24:00,32.0,9.3,21.11,SE,143,23.3,28.9,38,0.00,,---,0.00,VWS V14.01,2013-03-06 16:24:00,
2013-03-06 09:30:00,32.4,9.0,21.11,SE,146,25.1,25.1,37,0.00,,---,0.00,VWS V14.01,2013-03-06 16:30:00,
2013-03-06 09:35:00,32.7,9.3,21.11,SSE,149,28.0,28.0,37,0.00,,---,0.00,VWS V14.01,2013-03-06 16:35:00,
2013-03-06 09:40:00,32.7,8.7,21.11,SSE,151,29.3,29.3,36,0.00,,---,0.00,VWS V14.01,2013-03-06 16:40:00,
2013-03-06 09:46:00,33.1,9.1,21.11,SE,141,30.6,33.8,36,0.00,,---,0.00,VWS V14.01,2013-03-06 16:46:00,
2013-03-06 09:52:00,33.1,9.1,21.11,SE,143,32.4,32.4,36,0.00,,---,0.00,VWS V14.01,2013-03-06 16:52:00,
2013-03-06 09:58:00,33.1,9.1,21.11,SSE,148,25.5,28.0,36,0.00,,---,0.00,VWS V14.01,2013-03-06 16:58:00,
2013-03-06 10:03:00,33.1,9.1,21.11,SE,139,26.6,27.5,36,0.00,,---,0.00,VWS V14.01,2013-03-06 17:03:00,
2013-03-06 10:09:00,33.3,9.2,21.11,SSE,151,28.9,30.6,36,0.00,,---,0.00,VWS V14.01,2013-03-06 17:09:00,
2013-03-06 10:15:00,33.6,8.9,21.11,SE,140,24.2,32.4,35,0.00,,---,0.00,VWS V14.01,2013-03-06 17:15:00,
2013-03-06 10:20:00,34.0,9.2,21.11,SE,144,25.7,25.7,35,0.00,,---,0.00,VWS V14.01,2013-03-06 17:20:00,
2013-03-06 10:25:00,34.3,9.5,21.11,SE,133,28.4,28.4,35,0.00,,---,0.00,VWS V14.01,2013-03-06 17:25:00,
2013-03-06 10:30:00,35.1,10.2,21.11,SSE,154,25.7,28.9,35,0.00,,---,0.00,VWS V14.01,2013-03-06 17:30:00,
2013-03-06 10:36:00,35.1,9.5,21.11,SE,142,23.3,24.6,34,0.00,,---,0.00,VWS V14.01,2013-03-06 17:36:00,
2013-03-06 10:41:00,35.4,9.9,21.11,SSE,147,26.2,31.1,34,0.00,,---,0.00,VWS V14.01,2013-03-06 17:41:00,
2013-03-06 10:47:00,35.6,10.0,21.11,SSE,155,23.7,23.7,34,0.00,,---,0.00,VWS V14.01,2013-03-06 17:47:00,
2013-03-06 10:52:00,35.6,9.4,21.11,SSE,152,28.9,28.9,33,0.00,,---,0.00,VWS V14.01,2013-03-06 17:52:00,
2013-03-06 10:58:00,35.8,9.5,21.11,SSE,158,23.7,25.5,33,0.00,,---,0.00,VWS V14.01,2013-03-06 17:58:00,
2013-03-06 11:03:00,35.8,9.5,21.11,SSE,152,26.2,28.4,33,0.00,,---,0.00,VWS V14.01,2013-03-06 18:03:00,
2013-03-06 11:09:00,36.0,9.7,21.11,SSE,149,23.3,24.2,33,0.00,,---,0.00,VWS V14.01,2013-03-06 18:09:00,
2013-03-06 11:15:00,36.3,10.0,21.11,SE,138,32.9,32.9,33,0.00,,---,0.00,VWS V14.01,2013-03-06 18:15:00,
2013-03-06 11:20:00,36.3,10.0,21.11,SE,141,23.7,29.8,33,0.00,,---,0.00,VWS V14.01,2013-03-06 18:20:00,
2013-03-06 11:25:00,36.7,10.3,21.11,SSE,159,26.6,32.0,33,0.00,,---,0.00,VWS V14.01,2013-03-06 18:25:00,
2013-03-06 11:30:00,36.9,10.5,21.11,SSE,151,26.2,26.2,33,0.00,,---,0.00,VWS V14.01,2013-03-06 18:30:00,
2013-03-06 11:36:00,36.9,10.5,21.11,SSE,157,26.6,33.3,33,0.00,,---,0.00,VWS V14.01,2013-03-06 18:36:00,
2013-03-06 11:41:00,36.9,10.5,21.11,SSE,157,19.7,28.4,33,0.00,,---,0.00,VWS V14.01,2013-03-06 18:41:00,
2013-03-06 11:47:00,37.2,10.8,21.11,SE,140,24.2,24.2,33,0.00,,---,0.00,VWS V14.01,2013-03-06 18:47:00,
2013-03-06 11:53:00,37.6,10.4,21.11,SSE,151,33.3,33.3,32,0.00,,---,0.00,VWS V14.01,2013-03-06 18:53:00,
2013-03-06 11:58:00,37.6,11.1,21.11,SE,136,23.7,25.7,33,0.00,,---,0.00,VWS V14.01,2013-03-06 18:58:00,
2013-03-06 12:03:00,37.9,10.7,21.11,SSE,156,27.5,27.5,32,0.00,,---,0.00,VWS V14.01,2013-03-06 19:03:00,
2013-03-06 12:08:00,37.9,10.7,21.11,SE,142,24.6,24.6,32,0.00,,---,0.00,VWS V14.01,2013-03-06 19:08:00,
2013-03-06 12:14:00,37.9,10.7,21.11,SE,142,26.6,30.2,32,0.00,,---,0.00,VWS V14.01,2013-03-06 19:14:00,
2013-03-06 12:19:00,38.3,11.0,21.11,SE,143,30.6,30.6,32,0.00,,---,0.00,VWS V14.01,2013-03-06 19:19:00,
2013-03-06 12:25:00,38.5,11.2,21.11,SSE,155,23.3,29.8,32,0.00,,---,0.00,VWS V14.01,2013-03-06 19:25:00,
2013-03-06 12:30:00,38.5,11.2,21.11,SSE,149,30.2,30.2,32,0.00,,---,0.00,VWS V14.01,2013-03-06 19:30:00,
2013-03-06 12:36:00,38.8,11.5,21.11,SE,136,25.7,28.9,32,0.00,,---,0.00,VWS V14.01,2013-03-06 19:36:00,
2013-03-06 12:42:00,38.8,11.5,21.11,SSE,159,23.7,27.5,32,0.00,,---,0.00,VWS V14.01,2013-03-06 19:42:00,
2013-03-06 12:47:00,39.2,11.8,21.11,SE,132,23.3,30.2,32,0.00,,---,0.00,VWS V14.01,2013-03-06 19:47:00,
2013-03-06 12:53:00,38.8,11.5,21.11,SE,146,25.5,30.2,32,0.00,,---,0.00,VWS V14.01,2013-03-06 19:53:00,
2013-03-06 12:59:00,39.0,11.7,21.11,SE,127,27.5,30.6,32,0.00,,---,0.00,VWS V14.01,2013-03-06 19:59:00,
2013-03-06 13:04:00,39.0,11.7,21.11,SSE,151,28.0,30.6,32,0.00,,---,0.00,VWS V14.01,2013-03-06 20:04:00,
2013-03-06 13:09:00,39.4,12.0,21.11,SE,146,28.0,31.1,32,0.00,,---,0.00,VWS V14.01,2013-03-06 20:09:00,
2013-03-06 13:15:00,39.6,12.1,21.11,SSE,153,28.9,29.8,32,0.00,,---,0.00,VWS V14.01,2013-03-06 20:15:00,
2013-03-06 13:21:00,39.9,12.5,21.11,SSE,150,28.0,28.4,32,0.00,,---,0.00,VWS V14.01,2013-03-06 20:21:00,
2013-03-06 13:26:00,40.1,12.6,21.11,SE,143,27.1,30.6,32,0.00,,---,0.00,VWS V14.01,2013-03-06 20:26:00,
2013-03-06 13:32:00,40.3,12.8,21.11,SE,137,26.2,26.6,32,0.00,,---,0.00,VWS V14.01,2013-03-06 20:32:00,
2013-03-06 13:38:00,40.3,12.8,21.11,SSE,150,22.8,26.6,32,0.00,,---,0.00,VWS V14.01,2013-03-06 20:38:00,
2013-03-06 13:44:00,40.5,12.9,21.11,SE,144,25.1,31.1,32,0.00,,---,0.00,VWS V14.01,2013-03-06 20:44:00,
2013-03-06 13:50:00,40.6,13.1,21.11,SE,128,23.7,24.2,32,0.00,,---,0.00,VWS V14.01,2013-03-06 20:50:00,
2013-03-06 13:55:00,41.0,13.4,21.11,SE,142,32.0,32.0,32,0.00,,---,0.00,VWS V14.01,2013-03-06 20:55:00,
2013-03-06 14:00:00,41.0,13.4,21.11,SE,136,25.7,30.2,32,0.00,,---,0.00,VWS V14.01,2013-03-06 21:00:00,
2013-03-06 14:06:00,41.5,13.9,21.11,SE,124,32.4,32.4,32,0.00,,---,0.00,VWS V14.01,2013-03-06 21:06:00,
2013-03-06 14:11:00,41.7,14.1,21.11,SE,137,23.7,30.2,32,0.00,,---,0.00,VWS V14.01,2013-03-06 21:11:00,
2013-03-06 14:17:00,41.9,14.2,21.11,SE,133,25.5,28.0,32,0.00,,---,0.00,VWS V14.01,2013-03-06 21:17:00,
2013-03-06 14:22:00,42.1,14.4,21.11,SE,141,30.6,30.6,32,0.00,,---,0.00,VWS V14.01,2013-03-06 21:22:00,
2013-03-06 14:28:00,42.1,14.4,21.11,SE,140,30.6,30.6,32,0.00,,---,0.00,VWS V14.01,2013-03-06 21:28:00,
2013-03-06 14:34:00,42.3,14.5,21.11,SE,124,26.2,26.2,32,0.00,,---,0.00,VWS V14.01,2013-03-06 21:34:00,
2013-03-06 15:10:00,43.5,14.9,21.11,SE,133,32.0,32.9,31,0.00,,---,0.00,VWS V14.01,2013-03-06 22:10:00,
2013-03-06 15:15:00,43.3,14.8,21.11,SE,140,33.3,34.2,31,0.00,,---,0.00,VWS V14.01,2013-03-06 22:15:00,
2013-03-06 15:21:00,43.3,14.8,21.11,SE,141,26.2,26.2,31,0.00,,---,0.00,VWS V14.01,2013-03-06 22:21:00,
2013-03-06 15:26:00,43.5,14.9,21.11,SE,141,23.7,26.6,31,0.00,,---,0.00,VWS V14.01,2013-03-06 22:26:00,
2013-03-06 15:32:00,43.7,15.1,21.11,SE,140,27.5,28.4,31,0.00,,---,0.00,VWS V14.01,2013-03-06 22:32:00,
2013-03-06 15:37:00,43.9,15.2,21.11,SE,133,29.8,30.2,31,0.00,,---,0.00,VWS V14.01,2013-03-06 22:37:00,
2013-03-06 15:43:00,43.9,15.2,21.11,SE,146,25.7,31.1,31,0.00,,---,0.00,VWS V14.01,2013-03-06 22:43:00,
2013-03-06 15:48:00,43.9,14.5,21.11,SE,138,21.0,25.5,30,0.00,,---,0.00,VWS V14.01,2013-03-06 22:48:00,
2013-03-06 15:54:00,43.7,15.1,21.11,SE,127,28.0,28.0,31,0.00,,---,0.00,VWS V14.01,2013-03-06 22:54:00,
2013-03-06 16:00:00,44.1,14.6,21.11,SE,144,22.8,30.2,30,0.00,,---,0.00,VWS V14.01,2013-03-06 23:00:00,
2013-03-06 16:05:00,43.9,15.2,21.11,SE,135,23.3,28.9,31,0.00,,---,0.00,VWS V14.01,2013-03-06 23:05:00,
2013-03-06 16:11:00,43.9,14.5,21.11,SE,145,22.8,26.6,30,0.00,,---,0.00,VWS V14.01,2013-03-06 23:11:00,
2013-03-06 16:17:00,43.9,14.5,21.11,SE,131,26.6,30.2,30,0.00,,---,0.00,VWS V14.01,2013-03-06 23:17:00,
2013-03-06 16:22:00,43.7,14.3,21.11,SE,137,26.2,26.2,30,0.00,,---,0.00,VWS V14.01,2013-03-06 23:22:00,
2013-03-06 16:28:00,43.7,15.1,21.11,SE,136,18.3,24.2,31,0.00,,---,0.00,VWS V14.01,2013-03-06 23:28:00,
2013-03-06 16:33:00,43.7,15.1,21.11,SE,145,23.3,25.7,31,0.00,,---,0.00,VWS V14.01,2013-03-06 23:33:00,
2013-03-06 16:38:00,43.5,14.2,21.11,SE,130,25.1,26.6,30,0.00,,---,0.00,VWS V14.01,2013-03-06 23:38:00,
2013-03-06 16:43:00,43.0,13.7,21.11,SE,136,19.7,24.2,30,0.00,,---,0.00,VWS V14.01,2013-03-06 23:43:00,
2013-03-06 16:49:00,42.8,14.3,21.11,SE,127,20.6,25.7,31,0.00,,---,0.00,VWS V14.01,2013-03-06 23:49:00,
2013-03-06 16:54:00,42.4,14.0,21.11,SE,124,23.3,24.2,31,0.00,,---,0.00,VWS V14.01,2013-03-06 23:54:00,
2013-03-06 16:59:00,42.1,13.6,21.11,ESE,117,24.2,24.2,31,0.00,,---,0.00,VWS V14.01,2013-03-06 23:59:00,
2013-03-06 17:04:00,41.7,13.3,21.11,ESE,112,23.7,23.7,31,0.00,,---,0.00,VWS V14.01,2013-03-07 00:04:00,
2013-03-06 17:10:00,41.2,12.9,21.11,SE,127,17.4,20.6,31,0.00,,---,0.00,VWS V14.01,2013-03-07 00:10:00,
2013-03-06 17:15:00,40.8,13.3,21.11,ESE,121,17.9,19.7,32,0.00,,---,0.00,VWS V14.01,2013-03-07 00:15:00,
2013-03-06 17:20:00,40.3,12.8,21.11,ESE,115,18.3,18.8,32,0.00,,---,0.00,VWS V14.01,2013-03-07 00:20:00,
2013-03-06 17:25:00,39.6,12.1,21.11,SE,129,22.8,22.8,32,0.00,,---,0.00,VWS V14.01,2013-03-07 00:25:00,
2013-03-06 17:31:00,39.0,11.7,21.11,ESE,115,25.1,25.1,32,0.00,,---,0.00,VWS V14.01,2013-03-07 00:31:00,
2013-03-06 17:36:00,38.5,11.9,21.11,ESE,112,22.8,23.7,33,0.00,,---,0.00,VWS V14.01,2013-03-07 00:36:00,
2013-03-06 17:42:00,37.9,11.4,21.11,SE,124,26.2,26.2,33,0.00,,---,0.00,VWS V14.01,2013-03-07 00:42:00,
2013-03-06 17:48:00,37.4,10.9,21.11,ESE,104,22.8,22.8,33,0.00,,---,0.00,VWS V14.01,2013-03-07 00:48:00,
2013-03-06 17:53:00,36.9,11.1,21.11,ESE,106,23.3,23.3,34,0.00,,---,0.00,VWS V14.01,2013-03-07 00:53:00,
2013-03-06 17:59:00,36.5,11.5,21.11,ESE,108,19.2,22.4,35,0.00,,---,0.00,VWS V14.01,2013-03-07 00:59:00,
2013-03-06 18:05:00,36.1,11.1,21.11,ESE,105,18.8,19.7,35,0.00,,---,0.00,VWS V14.01,2013-03-07 01:05:00,
2013-03-06 18:11:00,35.8,11.4,21.11,ESE,103,22.4,22.4,36,0.00,,---,0.00,VWS V14.01,2013-03-07 01:11:00,
2013-03-06 18:16:00,35.4,11.1,21.11,East,92,13.2,17.9,36,0.00,,---,0.00,VWS V14.01,2013-03-07 01:16:00,
2013-03-06 18:21:00,35.1,11.4,21.11,ESE,109,18.8,22.4,37,0.00,,---,0.00,VWS V14.01,2013-03-07 01:21:00,
2013-03-06 18:27:00,34.7,11.1,21.11,ESE,104,15.4,20.6,37,0.00,,---,0.00,VWS V14.01,2013-03-07 01:27:00,
2013-03-06 18:32:00,34.5,11.5,21.11,ESE,109,19.7,19.7,38,0.00,,---,0.00,VWS V14.01,2013-03-07 01:32:00,
2013-03-06 18:38:00,34.3,12.0,21.11,East,100,15.4,15.4,39,0.00,,---,0.00,VWS V14.01,2013-03-07 01:38:00,
2013-03-06 18:44:00,34.0,12.2,21.11,East,96,17.0,18.3,40,0.00,,---,0.00,VWS V14.01,2013-03-07 01:44:00,
2013-03-06 18:49:00,33.8,12.1,21.11,East,99,13.2,16.8,40,0.00,,---,0.00,VWS V14.01,2013-03-07 01:49:00,
2013-03-06 18:55:00,33.6,11.9,21.11,ESE,105,17.9,17.9,40,0.00,,---,0.00,VWS V14.01,2013-03-07 01:55:00,
2013-03-06 19:00:00,33.4,11.7,21.11,East,92,15.0,16.8,40,0.00,,---,0.00,VWS V14.01,2013-03-07 02:00:00,
2013-03-06 19:05:00,33.3,11.6,21.11,East,100,15.9,15.9,40,0.00,,---,0.00,VWS V14.01,2013-03-07 02:05:00,
2013-03-06 19:10:00,33.1,12.0,21.11,East,94,14.1,17.4,41,0.00,,---,0.00,VWS V14.01,2013-03-07 02:10:00,
2013-03-06 19:16:00,33.1,12.0,21.11,East,97,17.4,17.9,41,0.00,,---,0.00,VWS V14.01,2013-03-07 02:16:00,
2013-03-06 19:21:00,32.9,11.8,21.11,ESE,112,16.8,17.9,41,0.00,,---,0.00,VWS V14.01,2013-03-07 02:21:00,
2013-03-06 19:26:00,32.7,11.6,21.11,ESE,106,15.4,17.0,41,0.00,,---,0.00,VWS V14.01,2013-03-07 02:26:00,
2013-03-06 19:31:00,32.7,12.2,21.11,ESE,115,16.8,17.4,42,0.00,,---,0.00,VWS V14.01,2013-03-07 02:31:00,
2013-03-06 19:37:00,32.5,12.0,21.11,East,101,16.8,18.8,42,0.00,,---,0.00,VWS V14.01,2013-03-07 02:37:00,
2013-03-06 19:42:00,32.5,12.0,21.11,ESE,109,21.0,21.0,42,0.00,,---,0.00,VWS V14.01,2013-03-07 02:42:00,
2013-03-06 19:48:00,32.5,12.0,21.11,ESE,114,17.4,21.0,42,0.00,,---,0.00,VWS V14.01,2013-03-07 02:48:00,
2013-03-06 19:53:00,32.5,12.5,21.11,ESE,117,18.8,22.8,43,0.00,,---,0.00,VWS V14.01,2013-03-07 02:53:00,
2013-03-06 19:59:00,32.5,12.5,21.11,ESE,113,20.1,20.1,43,0.00,,---,0.00,VWS V14.01,2013-03-07 02:59:00,
2013-03-06 20:04:00,32.4,12.9,21.11,ESE,118,24.6,24.6,44,0.00,,---,0.00,VWS V14.01,2013-03-07 03:04:00,
2013-03-06 20:10:00,32.5,13.6,21.11,SE,129,16.3,21.9,45,0.00,,---,0.00,VWS V14.01,2013-03-07 03:10:00,
2013-03-06 20:15:00,32.5,13.6,21.11,ESE,120,22.8,25.1,45,0.00,,---,0.00,VWS V14.01,2013-03-07 03:15:00,
2013-03-06 20:20:00,32.7,14.2,21.11,ESE,121,20.6,20.6,46,0.00,,---,0.00,VWS V14.01,2013-03-07 03:20:00,
2013-03-06 20:26:00,32.7,14.7,21.11,SE,133,23.3,25.5,47,0.00,,---,0.00,VWS V14.01,2013-03-07 03:26:00,
2013-03-06 20:31:00,32.7,14.7,21.11,SE,126,23.3,25.1,47,0.00,,---,0.00,VWS V14.01,2013-03-07 03:31:00,
2013-03-06 20:37:00,32.7,14.7,21.11,SE,128,22.4,22.4,47,0.00,,---,0.00,VWS V14.01,2013-03-07 03:37:00,
2013-03-06 20:43:00,32.5,15.0,21.11,SE,132,23.3,23.3,48,0.00,,---,0.00,VWS V14.01,2013-03-07 03:43:00,
2013-03-06 20:48:00,32.5,15.0,21.11,SE,131,20.1,24.6,48,0.00,,---,0.00,VWS V14.01,2013-03-07 03:48:00,
2013-03-06 20:54:00,32.2,15.2,21.11,SE,129,23.7,23.7,49,0.00,,---,0.00,VWS V14.01,2013-03-07 03:54:00,
2013-03-06 20:59:00,32.2,15.6,21.11,SSE,148,24.2,24.2,50,0.00,,---,0.00,VWS V14.01,2013-03-07 03:59:00,
2013-03-06 21:04:00,32.2,15.6,21.11,SE,125,23.7,23.7,50,0.00,,---,0.00,VWS V14.01,2013-03-07 04:04:00,
2013-03-06 21:09:00,31.8,15.3,21.11,SE,144,21.0,21.0,50,0.00,,---,0.00,VWS V14.01,2013-03-07 04:09:00,
2013-03-06 21:15:00,31.8,15.3,21.11,SE,133,23.7,23.7,50,0.00,,---,0.00,VWS V14.01,2013-03-07 04:15:00,
2013-03-06 21:20:00,31.5,15.4,21.11,SE,131,20.6,20.6,51,0.00,,---,0.00,VWS V14.01,2013-03-07 04:20:00,
2013-03-06 21:25:00,31.5,15.4,21.11,SE,137,25.7,25.7,51,0.00,,---,0.00,VWS V14.01,2013-03-07 04:25:00,
2013-03-06 21:30:00,31.1,15.1,21.11,SE,124,18.8,18.8,51,0.00,,---,0.00,VWS V14.01,2013-03-07 04:30:00,
2013-03-06 21:35:00,31.1,15.5,21.11,SE,128,21.0,21.0,52,0.00,,---,0.00,VWS V14.01,2013-03-07 04:35:00,
2013-03-06 21:41:00,30.9,15.4,21.11,ESE,123,17.9,19.2,52,0.00,,---,0.00,VWS V14.01,2013-03-07 04:41:00,
2013-03-06 21:46:00,30.7,15.2,21.11,SE,130,17.0,22.4,52,0.00,,---,0.00,VWS V14.01,2013-03-07 04:46:00,
2013-03-06 21:51:00,30.7,15.2,21.11,SE,135,21.5,21.5,52,0.00,,---,0.00,VWS V14.01,2013-03-07 04:51:00,
2013-03-06 21:57:00,30.6,15.5,21.11,SE,126,23.7,23.7,53,0.00,,---,0.00,VWS V14.01,2013-03-07 04:57:00,
2013-03-06 22:00:00,30.6,15.5,21.11,SE,128,18.8,18.8,53,0.00,,---,0.00,VWS V14.01,2013-03-07 05:00:00,
2013-03-06 22:01:00,30.6,15.5,21.11,SE,127,21.0,21.0,53,0.00,,---,0.00,VWS V14.01,2013-03-07 05:01:00,
2013-03-06 22:04:00,30.6,15.5,21.11,ESE,115,19.7,19.7,53,0.00,,---,0.00,VWS V14.01,2013-03-07 05:04:00,
2013-03-06 22:09:00,30.4,15.3,21.11,SE,129,15.9,16.3,53,0.00,,---,0.00,VWS V14.01,2013-03-07 05:09:00,
2013-03-06 22:11:00,30.4,15.3,21.11,ESE,123,17.4,17.4,53,0.00,,---,0.00,VWS V14.01,2013-03-07 05:11:00,
2013-03-06 22:16:00,30.4,15.3,21.11,ESE,119,15.0,15.0,53,0.00,,---,0.00,VWS V14.01,2013-03-07 05:16:00,
2013-03-06 22:22:00,30.0,15.4,21.11,ESE,122,17.4,21.0,54,0.00,,---,0.00,VWS V14.01,2013-03-07 05:22:00,
2013-03-06 22:28:00,29.8,15.2,21.11,SE,132,15.4,15.4,54,0.00,,---,0.00,VWS V14.01,2013-03-07 05:28:00,
2013-03-06 22:33:00,29.7,15.1,21.11,SE,137,17.4,17.4,54,0.00,,---,0.00,VWS V14.01,2013-03-07 05:33:00,
2013-03-06 22:39:00,29.5,14.9,21.11,SE,127,16.8,17.4,54,0.00,,---,0.00,VWS V14.01,2013-03-07 05:39:00,
2013-03-06 22:44:00,29.5,14.9,21.11,SE,138,15.4,15.4,54,0.00,,---,0.00,VWS V14.01,2013-03-07 05:44:00,
2013-03-06 22:49:00,29.5,14.9,21.11,SE,141,19.7,19.7,54,0.00,,---,0.00,VWS V14.01,2013-03-07 05:49:00,
2013-03-06 22:54:00,29.5,15.7,21.11,SE,129,20.1,20.1,56,0.00,,---,0.00,VWS V14.01,2013-03-07 05:54:00,
2013-03-06 23:00:00,29.5,15.7,21.11,SE,125,17.0,18.3,56,0.00,,---,0.00,VWS V14.01,2013-03-07 06:00:00,
2013-03-06 23:05:00,29.3,15.6,21.11,SE,131,19.7,19.7,56,0.00,,---,0.00,VWS V14.01,2013-03-07 06:05:00,
2013-03-06 23:10:00,29.1,15.4,21.11,ESE,122,17.9,17.9,56,0.00,,---,0.00,VWS V14.01,2013-03-07 06:10:00,
2013-03-06 23:15:00,29.1,15.4,21.11,ESE,122,18.3,18.3,56,0.00,,---,0.00,VWS V14.01,2013-03-07 06:15:00,
2013-03-06 23:21:00,28.8,15.5,21.11,SE,124,19.7,19.7,57,0.00,,---,0.00,VWS V14.01,2013-03-07 06:21:00,
2013-03-06 23:26:00,28.6,15.3,21.11,SE,133,18.3,18.3,57,0.00,,---,0.00,VWS V14.01,2013-03-07 06:26:00,
2013-03-06 23:32:00,28.6,15.3,21.11,SE,132,19.2,19.2,57,0.00,,---,0.00,VWS V14.01,2013-03-07 06:32:00,
2013-03-06 23:38:00,28.6,15.7,21.11,SE,137,17.0,17.0,58,0.00,,---,0.00,VWS V14.01,2013-03-07 06:38:00,
2013-03-06 23:43:00,28.4,15.9,21.11,SE,139,20.1,20.1,59,0.00,,---,0.00,VWS V14.01,2013-03-07 06:43:00,
2013-03-06 23:48:00,28.4,15.9,21.11,SE,133,18.3,18.3,59,0.00,,---,0.00,VWS V14.01,2013-03-07 06:48:00,
2013-03-06 23:54:00,28.2,15.8,21.11,SE,135,16.8,16.8,59,0.00,,---,0.00,VWS V14.01,2013-03-07 06:54:00,
2013-03-06 23:59:00,28.2,15.8,21.11,SE,126,15.0,17.0,59,0.00,,---,0.00,VWS V14.01,2013-03-07 06:59:00,